Time;durP1;ratioP1;P1;durP2;ratioP2;P2;SDS_P1;SDS_P2;PMS_P1;PMS_P2;Temp;Humidity;BMP_temperature;BMP_pressure;BME280_temperature;BME280_humidity;BME280_pressure;Samples;Min_cycle;Max_cycle;Signal;HPM_P1;HPM_P2
2022/06/04 00:05:02;;;;;;;2.85;1.20;;;;;;;18.68;72.20;97778.47;10033865;29;20061;-78
2022/06/04 00:16:04;;;;;;;2.17;1.10;;;;;;;19.07;72.16;97792.63;10048874;29;20102;-78
2022/06/04 00:21:25;;;;;;;4.45;1.05;;;;;;;19.14;71.70;97788.63;10033794;29;20557;-77
2022/06/04 00:26:45;;;;;;;2.95;0.90;;;;;;;19.26;71.42;97802.47;10059039;29;20057;-78
2022/06/04 00:32:06;;;;;;;3.58;0.82;;;;;;;19.29;71.59;97817.41;10033332;29;20145;-77
2022/06/04 00:37:27;;;;;;;2.03;0.88;;;;;;;19.33;71.20;97806.22;10058693;29;20061;-77
2022/06/04 00:42:48;;;;;;;4.32;0.80;;;;;;;19.35;70.91;97806.28;10045381;29;20065;-77
2022/06/04 00:48:09;;;;;;;4.07;0.80;;;;;;;19.33;70.92;97800.56;10032634;29;20049;-78
2022/06/04 00:53:30;;;;;;;1.77;0.73;;;;;;;19.32;70.87;97796.28;10045429;29;20067;-78
2022/06/04 00:59:01;;;;;;;1.15;0.80;;;;;;;19.36;70.86;97807.75;10032141;29;20057;-80
2022/06/04 01:10:39;;;;;;;2.67;1.05;;;;;;;19.35;70.61;97797.81;10081370;29;20057;-79
2022/06/04 01:16:15;;;;;;;1.13;0.63;;;;;;;19.35;70.71;97787.22;10082987;29;20091;-79
2022/06/04 01:21:44;;;;;;;1.00;0.65;;;;;;;19.34;70.68;97797.06;10078094;29;20072;-78
2022/06/04 01:27:27;;;;;;;1.40;0.93;;;;;;;19.30;70.29;97790.53;10077356;29;20049;-79
2022/06/04 01:32:56;;;;;;;5.10;0.98;;;;;;;19.28;70.68;97804.63;10091831;29;20097;-78
2022/06/04 01:38:22;;;;;;;1.67;0.75;;;;;;;19.22;70.31;97810.09;10064576;29;20481;-78
2022/06/04 01:43:54;;;;;;;1.30;0.73;;;;;;;19.21;70.30;97800.88;10077119;29;20057;-78
2022/06/04 01:49:36;;;;;;;6.03;0.90;;;;;;;19.22;70.23;97785.34;10064012;29;20143;-77
2022/06/04 01:55:04;;;;;;;1.73;0.93;;;;;;;19.15;70.11;97783.69;10076427;29;20061;-78
2022/06/04 02:00:47;;;;;;;1.67;0.90;;;;;;;19.15;70.30;97800.66;10077031;29;20065;-77
2022/06/04 02:06:10;;;;;;;;;;;;;;;19.07;70.51;97798.28;10053566;29;20049;-78
2022/06/04 02:11:31;;;;;;;1.40;1.02;;;;;;;19.06;70.37;97796.09;10088983;29;19924;-78
2022/06/04 02:16:53;;;;;;;1.58;1.20;;;;;;;19.12;70.49;97799.88;10063257;29;20053;-77
2022/06/04 02:22:14;;;;;;;1.85;1.05;;;;;;;19.10;70.56;97802.59;10075922;29;20057;-78
2022/06/04 02:27:35;;;;;;;2.90;1.13;;;;;;;19.10;70.49;97796.22;10075314;29;20503;-79
2022/06/04 02:33:19;;;;;;;2.63;1.25;;;;;;;19.10;70.28;97801.88;10062777;29;20053;-78
2022/06/04 02:38:48;;;;;;;1.70;1.60;;;;;;;19.05;70.68;97783.34;10075239;29;20053;-78
2022/06/04 02:44:28;;;;;;;3.97;1.98;;;;;;;19.05;70.75;97784.06;10074866;29;20418;-78
2022/06/04 02:49:56;;;;;;;5.35;3.03;;;;;;;18.99;70.70;97777.47;10074515;29;20049;-77
2022/06/04 02:55:18;;;;;;;3.35;2.13;;;;;;;18.95;70.68;97780.88;10074369;29;20049;-77
2022/06/04 03:00:39;;;;;;;2.97;2.60;;;;;;;18.91;70.23;97769.41;10073562;29;20088;-78
2022/06/04 03:06:02;;;;;;;2.58;2.38;;;;;;;18.87;70.60;97772.81;10060863;29;20457;-78
2022/06/04 03:11:22;;;;;;;3.80;2.50;;;;;;;18.90;70.30;97793.41;10060560;29;20132;-78
2022/06/04 03:16:44;;;;;;;3.03;2.72;;;;;;;18.93;70.19;97799.88;10073842;29;20045;-77
2022/06/04 03:22:05;;;;;;;4.25;2.80;;;;;;;18.88;70.14;97804.66;10073922;29;20492;-78
2022/06/04 03:27:25;;;;;;;4.72;2.80;;;;;;;18.81;70.21;97817.13;10060371;29;20106;-77
2022/06/04 03:32:46;;;;;;;5.97;2.78;;;;;;;18.81;70.56;97811.47;10072658;29;20061;-75
2022/06/04 03:38:06;;;;;;;3.30;2.75;;;;;;;18.86;70.05;97813.78;10085139;29;20496;-75
2022/06/04 03:43:27;;;;;;;6.00;2.80;;;;;;;18.86;69.92;97824.38;10071827;29;20088;-75
2022/06/04 03:48:48;;;;;;;3.47;2.92;;;;;;;18.95;69.98;97823.31;10059826;29;20553;-75
2022/06/04 03:54:09;;;;;;;4.72;3.15;;;;;;;19.06;69.79;97833.59;10059527;29;20109;-75
2022/06/04 03:59:31;;;;;;;5.05;2.90;;;;;;;19.21;69.74;97815.03;10085081;29;20079;-75
2022/06/04 04:04:59;;;;;;;4.10;3.58;;;;;;;19.37;69.28;97817.69;10060194;29;20080;-80
2022/06/04 04:10:20;;;;;;;4.55;3.53;;;;;;;19.52;68.68;97839.44;10090375;29;20495;-79
2022/06/04 04:15:41;;;;;;;5.45;3.95;;;;;;;19.69;68.49;97849.97;10077751;29;20476;-79
2022/06/04 04:21:07;;;;;;;4.90;3.72;;;;;;;19.96;68.17;97857.19;10058800;29;20053;-79
2022/06/04 04:26:27;;;;;;;5.82;3.92;;;;;;;19.96;67.67;97845.88;10079644;29;20056;-79
2022/06/04 04:31:48;;;;;;;5.20;3.88;;;;;;;19.94;67.61;97847.91;10109567;29;20049;-79
2022/06/04 04:37:09;;;;;;;6.47;4.18;;;;;;;19.99;67.69;97838.16;10109287;29;20060;-79
2022/06/04 04:42:30;;;;;;;9.18;3.85;;;;;;;20.13;67.29;97847.13;10096234;29;20053;-78
2022/06/04 04:47:50;;;;;;;5.07;3.70;;;;;;;20.29;67.01;97841.97;10096288;29;20056;-79
2022/06/04 04:53:11;;;;;;;4.63;3.70;;;;;;;20.46;66.75;97846.03;10095799;29;20049;-80
2022/06/04 04:58:32;;;;;;;6.50;3.83;;;;;;;20.47;66.33;97858.09;10108913;29;20056;-80
2022/06/04 05:03:52;;;;;;;7.22;4.10;;;;;;;20.34;65.98;97854.13;10095861;29;20068;-79
2022/06/04 05:09:21;;;;;;;7.40;4.10;;;;;;;20.60;66.46;97851.41;10111034;29;20071;-71
2022/06/04 05:14:42;;;;;;;4.72;3.83;;;;;;;21.03;65.99;97858.31;10135501;29;20396;-71
2022/06/04 05:20:03;;;;;;;4.95;4.30;;;;;;;21.63;65.17;97867.06;10121732;29;20060;-71
2022/06/04 05:25:24;;;;;;;5.13;4.05;;;;;;;22.68;63.86;97871.00;10108454;29;20052;-71
2022/06/04 05:30:44;;;;;;;5.45;4.03;;;;;;;23.25;61.89;97877.91;10121437;29;20080;-70
2022/06/04 05:36:05;;;;;;;4.35;3.35;;;;;;;23.29;61.36;97886.53;10121434;29;20056;-71
2022/06/04 05:41:25;;;;;;;5.20;3.47;;;;;;;22.92;60.84;97885.78;10107948;29;20048;-71
2022/06/04 05:46:46;;;;;;;5.95;4.22;;;;;;;22.82;60.65;97877.00;10095086;29;20088;-71
2022/06/04 05:52:10;;;;;;;4.60;3.70;;;;;;;23.15;60.79;97886.97;10121355;29;20048;-71
2022/06/04 05:57:31;;;;;;;7.47;3.75;;;;;;;23.86;59.45;97896.88;10107998;29;20056;-71
2022/06/04 06:02:51;;;;;;;4.20;3.63;;;;;;;24.30;56.84;97904.00;10108162;29;20061;-71
2022/06/04 06:08:13;;;;;;;8.10;3.58;;;;;;;25.60;55.27;97895.09;10089461;29;20067;-72
2022/06/04 06:13:41;;;;;;;5.55;3.50;;;;;;;30.07;45.92;97894.50;10115280;29;20056;-71
2022/06/04 06:19:05;;;;;;;6.07;3.30;;;;;;;35.97;40.64;97887.50;10115279;29;20053;-71
2022/06/04 06:24:26;;;;;;;6.50;3.60;;;;;;;37.16;32.50;97896.56;10114230;29;20060;-72
2022/06/04 06:29:47;;;;;;;3.42;3.00;;;;;;;38.32;33.07;97898.63;10101122;29;20057;-73
2022/06/04 06:35:08;;;;;;;3.20;2.55;;;;;;;41.50;25.29;97906.84;10100528;29;20057;-74
2022/06/04 06:40:29;;;;;;;4.20;2.33;;;;;;;36.84;27.60;97887.50;10113741;29;20059;-75
2022/06/04 06:45:50;;;;;;;;;;;;;;;37.85;27.04;97896.16;10100928;29;20067;-76
2022/06/04 06:51:14;;;;;;;3.90;2.20;;;;;;;44.96;23.61;97894.38;10093396;29;20010;-77
2022/06/04 06:56:37;;;;;;;4.70;2.20;;;;;;;48.38;18.47;97897.16;10074480;29;20064;-77
2022/06/04 07:01:58;;;;;;;2.47;1.63;;;;;;;48.89;16.05;97890.56;10091064;29;20057;-75
2022/06/04 07:07:20;;;;;;;2.28;1.38;;;;;;;50.98;14.55;97891.00;10061270;29;20053;-76
2022/06/04 07:12:42;;;;;;;4.35;1.27;;;;;;;51.95;12.36;97898.00;10060929;29;20416;-76
2022/06/04 07:18:04;;;;;;;2.63;0.82;;;;;;;50.85;12.17;97896.72;10075195;29;20424;-76
2022/06/04 07:23:34;;;;;;;2.08;1.27;;;;;;;48.38;12.09;97886.00;10041056;29;20492;-76
2022/06/04 07:28:56;;;;;;;2.53;1.23;;;;;;;48.49;13.12;97888.09;10098998;29;20435;-77
2022/06/04 07:34:17;;;;;;;1.75;1.40;;;;;;;50.90;10.69;97886.53;10098344;29;20052;-77
2022/06/04 07:39:44;;;;;;;1.25;1.15;;;;;;;44.99;13.76;97895.66;10024068;29;20088;-78
2022/06/04 07:45:11;;;;;;;5.13;2.08;;;;;;;39.37;17.34;97900.66;10047914;29;20061;-75
2022/06/04 07:50:33;;;;;;;3.75;1.95;;;;;;;36.47;22.92;97887.31;10051535;29;20060;-79
2022/06/04 07:55:54;;;;;;;3.80;1.73;;;;;;;41.47;20.41;97888.00;10061612;29;20065;-78
2022/06/04 08:01:19;;;;;;;3.15;1.00;;;;;;;47.19;14.56;97905.28;10076499;29;20496;-76
2022/06/04 08:06:41;;;;;;;3.55;1.60;;;;;;;40.56;16.66;97914.69;10061456;29;20045;-77
2022/06/04 08:12:02;;;;;;;1.90;1.50;;;;;;;36.26;20.69;97887.97;10076109;29;20423;-79
2022/06/04 08:17:24;;;;;;;4.30;1.95;;;;;;;34.40;22.95;97900.59;10078832;29;20515;-74
2022/06/04 08:22:45;;;;;;;3.05;1.75;;;;;;;34.97;24.81;97888.25;10075712;29;20056;-76
2022/06/04 08:28:06;;;;;;;3.83;1.27;;;;;;;43.61;20.20;97893.03;10095337;29;20559;-77
2022/06/04 08:33:28;;;;;;;2.67;0.82;;;;;;;50.29;14.62;97904.09;10030541;29;20465;-76
2022/06/04 08:38:49;;;;;;;2.45;0.80;;;;;;;53.11;11.67;97895.19;10032885;29;20061;-77
2022/06/04 08:44:33;;;;;;;5.53;0.85;;;;;;;54.46;9.12;97912.06;10084367;29;20060;-77
2022/06/04 08:50:23;;;;;;;2.72;1.15;;;;;;;46.89;11.68;97908.34;10096359;29;20056;-75
2022/06/04 09:01:40;;;;;;;3.75;1.30;;;;;;;41.06;16.49;97907.03;10105102;29;20140;-77
2022/06/04 09:07:20;;;;;;;1.55;1.23;;;;;;;37.96;18.84;97903.00;10057520;29;20063;-77
2022/06/04 09:12:57;;;;;;;2.63;1.48;;;;;;;38.07;20.38;97912.75;10043301;29;20065;-77
2022/06/04 09:18:32;;;;;;;3.95;1.30;;;;;;;36.44;20.52;97915.03;10064747;29;20056;-77
2022/06/04 09:23:53;;;;;;;3.60;1.50;;;;;;;35.68;22.21;97907.97;10097561;29;20053;-75
2022/06/04 09:29:37;;;;;;;4.03;1.70;;;;;;;36.73;22.26;97911.88;10056843;29;20053;-77
2022/06/04 09:34:58;;;;;;;4.22;1.75;;;;;;;34.94;23.29;97918.78;10068894;29;20086;-77
2022/06/04 09:40:26;;;;;;;2.22;1.40;;;;;;;38.69;22.81;97920.41;10061209;29;20049;-76
2022/06/04 09:45:52;;;;;;;4.63;1.08;;;;;;;41.90;19.10;97920.81;10063305;29;20583;-76
2022/06/04 09:51:25;;;;;;;2.55;1.27;;;;;;;39.36;19.12;97926.22;10063296;29;20053;-76
2022/06/04 09:56:51;;;;;;;2.00;1.15;;;;;;;39.38;19.90;97926.16;10086573;29;20519;-77
2022/06/04 10:02:15;;;;;;;2.47;1.60;;;;;;;36.05;21.26;97922.81;10061816;29;20065;-76
2022/06/04 10:07:37;;;;;;;3.75;1.67;;;;;;;33.68;24.95;97926.84;10072176;29;20473;-80
2022/06/04 10:19:01;;;;;;;3.75;2.22;;;;;;;34.99;24.49;97930.97;10103369;29;20071;-79
2022/06/04 10:24:24;;;;;;;4.53;3.08;;;;;;;33.72;26.79;97935.47;10094150;29;20045;-78
2022/06/04 10:30:03;;;;;;;3.55;2.90;;;;;;;33.94;29.98;97942.97;10047283;29;20083;-79
2022/06/04 10:36:01;;;;;;;3.92;2.53;;;;;;;41.25;22.12;97944.81;10087474;29;20068;-79
2022/06/04 10:41:31;;;;;;;3.03;2.50;;;;;;;38.21;22.64;97950.03;10058812;29;20082;-79
2022/06/04 10:47:19;;;;;;;2.88;2.10;;;;;;;41.46;21.77;97940.00;10031166;29;20140;-79
2022/06/04 10:53:39;;;;;;;3.90;2.10;;;;;;;43.12;17.63;97951.84;10008842;29;20050;-77
2022/06/04 10:59:04;;;;;;;4.88;2.00;;;;;;;37.85;20.93;97934.03;10009319;29;20108;-79
2022/06/04 11:04:29;;;;;;;3.05;2.00;;;;;;;34.49;24.13;97935.88;10072482;29;20377;-78
2022/06/04 11:09:51;;;;;;;3.10;2.60;;;;;;;32.83;26.29;97929.25;10073902;29;20163;-77
2022/06/04 11:15:25;;;;;;;3.60;2.58;;;;;;;32.47;28.22;97926.25;10073424;29;20061;-82
2022/06/04 11:20:58;;;;;;;3.13;2.80;;;;;;;31.65;29.41;97931.78;10086207;29;20143;-81
2022/06/04 11:26:49;;;;;;;4.82;3.22;;;;;;;30.95;30.49;97929.00;10094191;29;20116;-80
2022/06/04 11:32:32;;;;;;;3.60;3.17;;;;;;;30.45;30.98;97936.66;10105300;29;20515;-81
2022/06/04 11:38:17;;;;;;;3.88;2.90;;;;;;;30.92;31.16;97926.88;10075046;29;20052;-76
2022/06/04 11:44:01;;;;;;;2.75;2.03;;;;;;;32.06;29.96;97923.28;10056823;29;20149;-80
2022/06/04 11:49:31;;;;;;;3.38;2.63;;;;;;;32.93;28.89;97920.41;10092974;29;20053;-82
2022/06/04 11:55:12;;;;;;;4.17;2.57;;;;;;;32.28;29.14;97909.97;10084814;29;20060;-82
2022/06/04 12:00:41;;;;;;;3.15;2.33;;;;;;;31.59;30.36;97918.16;10084111;29;20079;-83
2022/06/04 12:06:20;;;;;;;2.95;2.45;;;;;;;31.69;30.51;97937.50;10084687;29;20064;-82
2022/06/04 12:11:49;;;;;;;2.33;2.13;;;;;;;32.71;30.01;97933.78;10082441;29;20445;-83
2022/06/04 12:17:19;;;;;;;3.92;1.95;;;;;;;32.35;29.79;97925.75;10071111;29;20057;-82
2022/06/04 12:28:30;;;;;;;2.33;1.90;;;;;;;33.00;29.07;97930.38;10114573;29;20415;-82
2022/06/04 12:33:51;;;;;;;2.30;1.45;;;;;;;33.01;29.14;97920.28;10109702;29;20381;-81
2022/06/04 12:39:28;;;;;;;2.88;1.63;;;;;;;33.08;28.92;97918.66;10096352;29;20403;-82
2022/06/04 12:45:04;;;;;;;2.95;1.40;;;;;;;31.99;28.95;97912.56;10121974;29;20057;-82
2022/06/04 12:50:31;;;;;;;2.20;1.50;;;;;;;31.34;30.14;97911.28;10096917;29;20456;-82
2022/06/04 12:55:53;;;;;;;2.17;1.40;;;;;;;30.60;30.85;97910.63;10096356;29;20112;-82
2022/06/04 13:01:17;;;;;;;;;;;;;;;31.10;30.93;97914.44;10108932;29;20484;-82
2022/06/04 13:07:14;;;;;;;1.90;1.50;;;;;;;31.66;30.79;97920.97;10121565;29;20488;-76
2022/06/04 13:12:40;;;;;;;1.50;1.38;;;;;;;31.38;30.53;97907.63;10097304;29;20057;-81
2022/06/04 13:18:00;;;;;;;2.75;1.10;;;;;;;30.47;31.10;97913.59;10093900;29;20055;-81
2022/06/04 13:23:32;;;;;;;1.52;1.02;;;;;;;30.33;31.50;97924.53;10084084;29;20049;-81
2022/06/04 13:28:52;;;;;;;3.42;1.35;;;;;;;29.93;31.65;97941.34;10081882;29;20053;-81
2022/06/04 13:34:14;;;;;;;3.53;1.48;;;;;;;29.57;32.19;97953.03;10026405;29;20465;-80
2022/06/04 13:39:35;;;;;;;;;;;;;;;29.41;33.46;97958.81;10052298;29;20050;-83
2022/06/04 13:45:08;;;;;;;1.88;0.90;;;;;;;29.02;33.07;97959.66;10077762;29;20297;-84
2022/06/04 13:50:31;;;;;;;2.42;0.90;;;;;;;28.34;33.67;97969.03;10118618;29;20500;-84
2022/06/04 13:56:02;;;;;;;1.00;0.90;;;;;;;27.75;35.31;97966.03;10114878;29;20052;-82
2022/06/04 14:01:32;;;;;;;2.20;1.03;;;;;;;27.39;34.85;97961.56;10081501;29;20500;-83
2022/06/04 14:06:53;;;;;;;1.65;1.10;;;;;;;27.12;35.39;97971.47;10067325;29;20465;-78
2022/06/04 14:12:18;;;;;;;1.85;1.50;;;;;;;26.99;36.41;97964.94;10075953;29;20068;-78
2022/06/04 14:17:52;;;;;;;1.90;1.20;;;;;;;26.93;36.62;97970.63;10078593;29;20049;-78
2022/06/04 14:23:29;;;;;;;2.45;1.83;;;;;;;26.82;36.98;97978.41;10113591;29;20051;-78
2022/06/04 14:28:56;;;;;;;2.22;1.70;;;;;;;26.80;36.92;97989.88;10113734;29;20109;-78
2022/06/04 14:34:18;;;;;;;4.75;2.00;;;;;;;26.78;37.10;97998.44;10100995;29;20057;-80
2022/06/04 14:39:40;;;;;;;4.23;1.50;;;;;;;26.78;37.66;98002.03;10113720;29;20053;-80
2022/06/04 14:45:20;;;;;;;2.17;1.50;;;;;;;26.72;37.50;97995.53;10113368;29;20056;-80
2022/06/04 14:51:02;;;;;;;2.60;1.30;;;;;;;26.47;37.59;97986.75;10113368;29;20079;-80
2022/06/04 14:56:41;;;;;;;;;;;;;;;26.17;38.47;97978.59;10126120;29;20049;-79
2022/06/04 15:02:39;;;;;;;2.63;1.15;;;;;;;26.08;38.54;97982.09;10112375;29;19930;-79
2022/06/04 15:08:23;;;;;;;4.03;1.30;;;;;;;25.94;38.58;97983.34;10139287;29;20100;-79
2022/06/04 15:14:37;;;;;;;2.63;1.40;;;;;;;25.72;39.10;97979.53;10096935;29;20057;-79
2022/06/04 15:20:15;;;;;;;2.97;1.35;;;;;;;25.53;39.07;97987.16;10071514;29;20057;-79
2022/06/04 15:26:02;;;;;;;5.00;1.50;;;;;;;25.48;39.69;97997.09;10113851;29;20061;-79
2022/06/04 15:37:41;;;;;;;5.28;1.58;;;;;;;25.09;39.81;97993.72;10113165;29;20056;-79
2022/06/04 15:43:06;;;;;;;4.28;1.40;;;;;;;24.84;39.80;98004.75;10124239;29;20056;-79
2022/06/04 15:48:30;;;;;;;2.38;1.42;;;;;;;24.66;40.14;97998.03;10111659;29;20071;-82
2022/06/04 15:59:38;;;;;;;5.30;2.13;;;;;;;25.23;41.51;98013.19;10115907;29;20052;-80
2022/06/04 16:05:06;;;;;;;2.88;1.77;;;;;;;25.49;41.54;98009.97;10110548;29;20071;-89
2022/06/04 16:10:36;;;;;;;2.67;2.00;;;;;;;25.34;41.84;98015.50;10098313;29;20060;-87
2022/06/04 16:16:09;;;;;;;2.92;1.73;;;;;;;25.25;42.92;98013.94;10123327;29;20091;-88
2022/06/04 16:22:06;;;;;;;3.03;1.50;;;;;;;25.29;42.92;98013.28;10122857;29;20138;-83
2022/06/04 16:27:28;;;;;;;3.05;2.10;;;;;;;25.05;42.84;98016.50;10098381;29;20097;-83
2022/06/04 16:33:25;;;;;;;2.78;2.00;;;;;;;24.80;43.77;98016.13;10109870;29;20052;-79
2022/06/04 16:38:46;;;;;;;4.28;2.00;;;;;;;24.84;43.74;98010.47;10074175;29;20473;-79
2022/06/04 16:44:14;;;;;;;3.37;2.30;;;;;;;24.69;44.17;97999.50;10109232;29;20483;-79
2022/06/04 16:49:49;;;;;;;3.83;1.75;;;;;;;24.59;44.13;98002.94;10121630;29;20404;-82
2022/06/04 16:55:13;;;;;;;3.30;1.90;;;;;;;24.59;44.26;98007.91;10066370;29;20469;-79
2022/06/04 17:00:59;;;;;;;3.67;2.30;;;;;;;24.46;44.21;98004.16;10104940;29;20052;-79
2022/06/04 17:06:30;;;;;;;4.20;2.20;;;;;;;24.38;44.43;98015.41;10030210;29;20062;-79
2022/06/04 17:12:23;;;;;;;6.72;2.03;;;;;;;24.49;45.06;98014.19;10019475;29;20501;-78
2022/06/04 17:18:14;;;;;;;3.05;2.13;;;;;;;24.66;45.11;98006.59;10006479;29;20142;-78
2022/06/04 17:23:41;;;;;;;5.55;2.10;;;;;;;24.63;45.17;98002.28;10020534;29;20110;-78
2022/06/04 17:29:22;;;;;;;3.53;2.85;;;;;;;24.54;45.13;98001.44;10006716;29;20065;-76
2022/06/04 17:34:59;;;;;;;4.60;2.67;;;;;;;24.25;45.75;98020.16;10006217;29;20058;-79
2022/06/04 17:40:26;;;;;;;4.05;2.70;;;;;;;24.14;45.38;98024.25;10019331;29;20057;-78
2022/06/04 17:45:47;;;;;;;6.63;2.30;;;;;;;24.04;45.60;98026.91;10032092;29;20065;-77
2022/06/04 17:51:08;;;;;;;3.85;2.30;;;;;;;23.98;46.03;98021.81;10006071;29;20083;-78
2022/06/04 17:56:29;;;;;;;4.78;2.75;;;;;;;23.92;46.00;98027.38;10006003;29;20118;-77
2022/06/04 18:01:50;;;;;;;3.97;2.10;;;;;;;23.73;46.16;98045.53;10034083;29;20503;-79
2022/06/04 18:07:11;;;;;;;2.45;2.20;;;;;;;23.59;46.11;98052.38;10101945;29;20059;-77
2022/06/04 18:12:32;;;;;;;3.35;2.25;;;;;;;23.51;46.38;98060.72;10114699;29;20053;-78
2022/06/04 18:17:52;;;;;;;3.13;2.17;;;;;;;23.26;46.61;98073.72;10114540;29;20061;-77
2022/06/04 18:23:13;;;;;;;3.30;2.47;;;;;;;23.00;47.21;98056.03;10101760;29;20048;-76
2022/06/04 18:28:37;;;;;;;5.20;2.20;;;;;;;22.79;47.68;98072.59;10101475;29;20053;-76
2022/06/04 18:34:00;;;;;;;4.65;2.30;;;;;;;22.67;47.90;98077.25;10102398;29;20060;-77
2022/06/04 18:39:21;;;;;;;5.25;2.00;;;;;;;22.52;48.24;98091.09;10101127;29;20056;-80
2022/06/04 18:56:00;;;;;;;2.85;1.70;;;;;;;21.93;49.37;98089.50;10128581;29;20059;-81
2022/06/04 19:01:21;;;;;;;4.78;1.90;;;;;;;21.74;49.64;98098.88;10088673;29;20080;-82
2022/06/04 19:06:42;;;;;;;2.15;1.60;;;;;;;21.53;50.01;98106.09;10076433;29;20055;-79
2022/06/04 19:17:46;;;;;;;2.60;1.55;;;;;;;21.23;50.49;98120.03;10069427;29;20060;-82
2022/06/04 19:28:47;;;;;;;2.85;1.80;;;;;;;21.01;50.80;98130.66;10103632;29;20065;-82
2022/06/04 19:34:08;;;;;;;2.58;1.48;;;;;;;20.97;51.05;98144.72;10092832;29;20057;-86
2022/06/04 19:39:29;;;;;;;3.38;1.80;;;;;;;20.86;51.52;98150.06;10097241;29;20052;-90
2022/06/04 19:44:49;;;;;;;2.65;1.88;;;;;;;20.77;51.52;98161.81;10084911;29;20060;-89
2022/06/04 19:50:11;;;;;;;3.25;1.77;;;;;;;20.66;51.58;98163.56;10093280;29;20393;-89
2022/06/04 19:55:31;;;;;;;2.85;1.95;;;;;;;20.55;51.87;98173.81;10089416;29;20101;-79
2022/06/04 20:00:53;;;;;;;4.43;2.33;;;;;;;20.46;52.02;98179.84;10071134;29;20089;-78
2022/06/04 20:06:15;;;;;;;2.95;1.92;;;;;;;20.37;52.56;98180.94;10101272;29;20077;-78
2022/06/04 20:11:36;;;;;;;6.53;2.15;;;;;;;20.26;52.71;98189.06;10087258;29;20049;-79
2022/06/04 20:16:57;;;;;;;4.95;2.58;;;;;;;20.08;53.22;98191.25;10074234;29;20704;-79
2022/06/04 20:22:17;;;;;;;3.30;2.55;;;;;;;19.96;53.44;98191.50;10073781;29;20049;-78
2022/06/04 20:27:38;;;;;;;4.47;2.63;;;;;;;19.90;53.98;98188.44;10086862;29;20095;-78
2022/06/04 20:32:59;;;;;;;2.92;2.55;;;;;;;19.85;54.20;98174.75;10062470;29;20060;-79
2022/06/04 20:38:20;;;;;;;3.97;2.45;;;;;;;19.80;54.30;98190.16;10073292;29;20105;-81
2022/06/04 20:43:42;;;;;;;4.63;3.05;;;;;;;19.64;54.51;98185.31;10068123;29;20100;-81
2022/06/04 20:49:09;;;;;;;3.78;2.67;;;;;;;19.56;54.94;98195.59;10086128;29;20190;-82
2022/06/04 20:54:30;;;;;;;3.13;2.83;;;;;;;19.55;55.23;98182.78;10083873;29;20057;-80
2022/06/04 20:59:51;;;;;;;6.25;3.00;;;;;;;19.46;55.20;98198.72;10070250;29;20056;-81
2022/06/04 21:05:21;;;;;;;3.40;3.10;;;;;;;19.37;55.60;98220.31;10022321;29;20519;-82
2022/06/04 21:10:43;;;;;;;3.78;3.00;;;;;;;19.31;56.01;98205.22;10029185;29;20060;-81
2022/06/04 21:16:05;;;;;;;3.20;2.83;;;;;;;19.24;56.49;98201.41;10044086;29;20053;-82
2022/06/04 21:21:26;;;;;;;6.10;4.10;;;;;;;19.16;56.45;98207.44;10019421;29;20050;-82
2022/06/04 21:26:48;;;;;;;6.93;3.72;;;;;;;19.12;56.62;98192.41;10032276;29;20390;-82
2022/06/04 21:32:09;;;;;;;4.00;3.65;;;;;;;19.07;57.21;98200.00;10031874;29;20405;-81
2022/06/04 21:37:41;;;;;;;5.35;4.20;;;;;;;19.06;57.25;98200.63;10039127;29;20057;-82
2022/06/04 21:43:02;;;;;;;6.27;4.17;;;;;;;19.04;58.08;98212.59;10053510;29;20061;-82
2022/06/04 21:48:24;;;;;;;5.45;4.32;;;;;;;18.95;58.02;98204.44;10038800;29;20064;-82
2022/06/04 21:53:45;;;;;;;4.57;4.18;;;;;;;18.93;58.37;98193.75;10038813;29;20485;-82
2022/06/04 21:59:05;;;;;;;7.18;4.15;;;;;;;18.86;58.66;98192.03;10038197;29;20516;-82
2022/06/04 22:04:26;;;;;;;5.18;4.25;;;;;;;18.80;58.75;98188.94;10051139;29;20065;-82
2022/06/04 22:09:47;;;;;;;6.75;4.28;;;;;;;18.80;58.84;98184.00;10038054;29;20062;-82
2022/06/04 22:15:08;;;;;;;5.75;5.05;;;;;;;18.74;59.16;98185.88;10038230;29;20064;-81
2022/06/04 22:20:28;;;;;;;5.68;5.07;;;;;;;18.67;59.53;98186.97;10037706;29;20050;-83
2022/06/04 22:25:49;;;;;;;6.57;5.97;;;;;;;18.64;59.89;98188.25;10037374;29;20520;-82
2022/06/04 22:31:10;;;;;;;7.57;6.10;;;;;;;18.56;60.43;98175.22;10050223;29;20390;-82
2022/06/04 22:36:31;;;;;;;7.03;5.93;;;;;;;18.53;60.60;98176.50;10036983;29;20057;-82
2022/06/04 22:41:51;;;;;;;6.85;5.93;;;;;;;18.53;60.68;98172.94;10036824;29;20054;-82
2022/06/04 22:47:14;;;;;;;6.70;5.97;;;;;;;18.43;60.91;98181.72;10036104;29;20147;-82
2022/06/04 22:52:35;;;;;;;7.82;6.40;;;;;;;18.39;61.31;98175.88;10049996;29;20053;-83
2022/06/04 22:57:56;;;;;;;7.40;6.43;;;;;;;18.38;61.39;98174.41;10036485;29;20524;-82
2022/06/04 23:03:18;;;;;;;9.52;6.78;;;;;;;18.33;61.48;98178.41;10093162;24;20515;-81
2022/06/04 23:08:38;;;;;;;8.88;6.80;;;;;;;18.25;61.84;98161.13;10086845;29;20565;-82
2022/06/04 23:25:19;;;;;;;8.45;7.25;;;;;;;18.03;62.67;98155.94;10075738;29;20057;-82
2022/06/04 23:30:40;;;;;;;7.47;6.78;;;;;;;17.97;62.70;98155.69;10073788;29;20061;-82
2022/06/04 23:36:00;;;;;;;8.10;7.30;;;;;;;17.91;62.77;98158.22;10073145;29;20053;-82
2022/06/04 23:47:00;;;;;;;9.05;8.15;;;;;;;17.77;63.53;98165.31;10088398;29;20068;-81
2022/06/04 23:52:22;;;;;;;8.63;7.72;;;;;;;17.66;63.76;98150.72;10072503;29;20057;-82
2022/06/04 23:57:43;;;;;;;9.13;7.85;;;;;;;17.62;64.14;98149.78;10084612;29;20065;-82
